sensor_id;sensor_type;location;lat;lon;timestamp;P1;durP1;ratioP1;P2;durP2;ratioP2
29302;SDS011;60019;45.556;12.004;2023-02-23T00:02:56;95.07;;;56.75;;
29302;SDS011;60019;45.556;12.004;2023-02-23T00:16:44;95.40;;;54.53;;
29302;SDS011;60019;45.556;12.004;2023-02-23T00:22:46;97.35;;;54.53;;
29302;SDS011;60019;45.556;12.004;2023-02-23T00:28:48;96.20;;;55.60;;
29302;SDS011;60019;45.556;12.004;2023-02-23T00:34:53;102.75;;;54.20;;
29302;SDS011;60019;45.556;12.004;2023-02-23T00:40:57;100.75;;;54.92;;
29302;SDS011;60019;45.556;12.004;2023-02-23T00:46:59;89.47;;;51.83;;
29302;SDS011;60019;45.556;12.004;2023-02-23T00:53:01;90.82;;;54.72;;
29302;SDS011;60019;45.556;12.004;2023-02-23T00:59:04;94.30;;;52.97;;
29302;SDS011;60019;45.556;12.004;2023-02-23T01:05:07;96.57;;;52.75;;
29302;SDS011;60019;45.556;12.004;2023-02-23T01:11:13;98.53;;;55.58;;
29302;SDS011;60019;45.556;12.004;2023-02-23T01:17:15;99.28;;;54.83;;
29302;SDS011;60019;45.556;12.004;2023-02-23T01:23:17;95.93;;;53.50;;
29302;SDS011;60019;45.556;12.004;2023-02-23T01:29:21;98.82;;;52.28;;
29302;SDS011;60019;45.556;12.004;2023-02-23T01:35:24;93.10;;;51.65;;
29302;SDS011;60019;45.556;12.004;2023-02-23T01:41:26;97.25;;;52.70;;
29302;SDS011;60019;45.556;12.004;2023-02-23T01:47:28;88.53;;;49.67;;
29302;SDS011;60019;45.556;12.004;2023-02-23T01:53:32;92.13;;;51.90;;
29302;SDS011;60019;45.556;12.004;2023-02-23T02:05:38;106.38;;;57.38;;
29302;SDS011;60019;45.556;12.004;2023-02-23T02:11:40;101.75;;;53.55;;
29302;SDS011;60019;45.556;12.004;2023-02-23T02:36:23;92.80;;;51.92;;
29302;SDS011;60019;45.556;12.004;2023-02-23T02:42:38;99.63;;;56.25;;
29302;SDS011;60019;45.556;12.004;2023-02-23T02:55:00;91.57;;;52.38;;
29302;SDS011;60019;45.556;12.004;2023-02-23T03:01:05;91.72;;;51.80;;
29302;SDS011;60019;45.556;12.004;2023-02-23T03:07:33;86.05;;;50.20;;
29302;SDS011;60019;45.556;12.004;2023-02-23T03:20:29;87.73;;;49.63;;
29302;SDS011;60019;45.556;12.004;2023-02-23T03:26:57;84.55;;;48.55;;
29302;SDS011;60019;45.556;12.004;2023-02-23T03:33:27;82.97;;;51.45;;
29302;SDS011;60019;45.556;12.004;2023-02-23T03:40:00;79.40;;;48.97;;
29302;SDS011;60019;45.556;12.004;2023-02-23T03:46:24;82.85;;;48.22;;
29302;SDS011;60019;45.556;12.004;2023-02-23T03:52:48;86.65;;;49.20;;
29302;SDS011;60019;45.556;12.004;2023-02-23T03:59:09;81.95;;;48.90;;
29302;SDS011;60019;45.556;12.004;2023-02-23T04:05:32;86.68;;;50.10;;
29302;SDS011;60019;45.556;12.004;2023-02-23T04:35:05;80.00;;;47.25;;
29302;SDS011;60019;45.556;12.004;2023-02-23T04:41:08;77.78;;;47.80;;
29302;SDS011;60019;45.556;12.004;2023-02-23T04:47:10;77.63;;;46.83;;
29302;SDS011;60019;45.556;12.004;2023-02-23T04:53:12;77.97;;;47.50;;
29302;SDS011;60019;45.556;12.004;2023-02-23T04:59:14;69.55;;;44.70;;
29302;SDS011;60019;45.556;12.004;2023-02-23T05:05:16;70.30;;;45.47;;
29302;SDS011;60019;45.556;12.004;2023-02-23T05:11:18;82.88;;;48.13;;
29302;SDS011;60019;45.556;12.004;2023-02-23T05:17:19;75.65;;;43.70;;
29302;SDS011;60019;45.556;12.004;2023-02-23T05:23:21;77.22;;;45.97;;
29302;SDS011;60019;45.556;12.004;2023-02-23T05:29:23;75.15;;;47.28;;
29302;SDS011;60019;45.556;12.004;2023-02-23T05:35:25;83.50;;;45.15;;
29302;SDS011;60019;45.556;12.004;2023-02-23T05:41:27;82.35;;;47.47;;
29302;SDS011;60019;45.556;12.004;2023-02-23T05:47:29;82.00;;;47.10;;
29302;SDS011;60019;45.556;12.004;2023-02-23T05:53:31;76.88;;;47.03;;
29302;SDS011;60019;45.556;12.004;2023-02-23T05:59:33;81.10;;;48.70;;
29302;SDS011;60019;45.556;12.004;2023-02-23T06:05:35;85.97;;;51.17;;
29302;SDS011;60019;45.556;12.004;2023-02-23T06:11:37;85.47;;;48.90;;
29302;SDS011;60019;45.556;12.004;2023-02-23T06:17:38;80.40;;;49.45;;
29302;SDS011;60019;45.556;12.004;2023-02-23T06:23:40;81.18;;;48.88;;
29302;SDS011;60019;45.556;12.004;2023-02-23T06:29:42;80.85;;;47.78;;
29302;SDS011;60019;45.556;12.004;2023-02-23T06:35:44;83.32;;;48.65;;
29302;SDS011;60019;45.556;12.004;2023-02-23T06:41:46;86.53;;;47.85;;
29302;SDS011;60019;45.556;12.004;2023-02-23T06:47:48;73.55;;;46.92;;
29302;SDS011;60019;45.556;12.004;2023-02-23T06:53:49;76.13;;;46.83;;
29302;SDS011;60019;45.556;12.004;2023-02-23T06:59:54;82.22;;;49.22;;
29302;SDS011;60019;45.556;12.004;2023-02-23T07:05:56;75.55;;;46.20;;
29302;SDS011;60019;45.556;12.004;2023-02-23T07:11:58;76.65;;;44.85;;
29302;SDS011;60019;45.556;12.004;2023-02-23T07:18:00;65.43;;;42.75;;
29302;SDS011;60019;45.556;12.004;2023-02-23T07:24:02;71.10;;;43.90;;
29302;SDS011;60019;45.556;12.004;2023-02-23T07:30:05;72.78;;;44.08;;
29302;SDS011;60019;45.556;12.004;2023-02-23T07:36:08;71.15;;;44.33;;
29302;SDS011;60019;45.556;12.004;2023-02-23T07:42:10;77.22;;;45.90;;
29302;SDS011;60019;45.556;12.004;2023-02-23T07:48:11;78.22;;;47.35;;
29302;SDS011;60019;45.556;12.004;2023-02-23T07:54:13;87.13;;;48.28;;
29302;SDS011;60019;45.556;12.004;2023-02-23T08:00:16;83.97;;;48.40;;
29302;SDS011;60019;45.556;12.004;2023-02-23T08:06:18;84.95;;;51.15;;
29302;SDS011;60019;45.556;12.004;2023-02-23T08:12:20;88.15;;;51.30;;
29302;SDS011;60019;45.556;12.004;2023-02-23T08:18:22;98.05;;;53.50;;
29302;SDS011;60019;45.556;12.004;2023-02-23T08:24:24;91.78;;;52.45;;
29302;SDS011;60019;45.556;12.004;2023-02-23T08:30:26;85.70;;;52.00;;
29302;SDS011;60019;45.556;12.004;2023-02-23T08:36:28;84.85;;;50.50;;
29302;SDS011;60019;45.556;12.004;2023-02-23T08:42:29;93.70;;;54.33;;
29302;SDS011;60019;45.556;12.004;2023-02-23T08:48:31;95.25;;;54.58;;
29302;SDS011;60019;45.556;12.004;2023-02-23T08:54:33;89.65;;;52.45;;
29302;SDS011;60019;45.556;12.004;2023-02-23T09:00:36;89.00;;;52.22;;
29302;SDS011;60019;45.556;12.004;2023-02-23T09:06:37;93.22;;;52.75;;
29302;SDS011;60019;45.556;12.004;2023-02-23T09:12:40;90.40;;;55.08;;
29302;SDS011;60019;45.556;12.004;2023-02-23T09:18:42;94.57;;;53.92;;
29302;SDS011;60019;45.556;12.004;2023-02-23T09:24:44;99.75;;;56.58;;
29302;SDS011;60019;45.556;12.004;2023-02-23T09:30:46;98.93;;;54.85;;
29302;SDS011;60019;45.556;12.004;2023-02-23T09:36:48;102.95;;;58.42;;
29302;SDS011;60019;45.556;12.004;2023-02-23T09:48:54;100.85;;;54.45;;
29302;SDS011;60019;45.556;12.004;2023-02-23T09:54:57;92.97;;;52.63;;
29302;SDS011;60019;45.556;12.004;2023-02-23T10:39:24;119.95;;;63.53;;
29302;SDS011;60019;45.556;12.004;2023-02-23T12:34:55;139.25;;;76.35;;
29302;SDS011;60019;45.556;12.004;2023-02-23T12:41:23;122.00;;;70.35;;
29302;SDS011;60019;45.556;12.004;2023-02-23T12:59:33;106.68;;;61.33;;
29302;SDS011;60019;45.556;12.004;2023-02-23T13:06:01;102.45;;;58.10;;
29302;SDS011;60019;45.556;12.004;2023-02-23T13:24:47;93.95;;;53.65;;
29302;SDS011;60019;45.556;12.004;2023-02-23T13:30:50;135.40;;;74.03;;
29302;SDS011;60019;45.556;12.004;2023-02-23T13:36:52;117.80;;;67.60;;
29302;SDS011;60019;45.556;12.004;2023-02-23T13:49:20;111.07;;;63.88;;
29302;SDS011;60019;45.556;12.004;2023-02-23T14:01:31;102.07;;;58.90;;
29302;SDS011;60019;45.556;12.004;2023-02-23T14:07:37;99.90;;;55.47;;
29302;SDS011;60019;45.556;12.004;2023-02-23T14:13:40;116.45;;;62.30;;
29302;SDS011;60019;45.556;12.004;2023-02-23T14:26:11;124.93;;;68.50;;
29302;SDS011;60019;45.556;12.004;2023-02-23T14:38:22;121.03;;;65.43;;
29302;SDS011;60019;45.556;12.004;2023-02-23T14:44:34;113.25;;;62.10;;
29302;SDS011;60019;45.556;12.004;2023-02-23T14:50:41;113.72;;;60.80;;
29302;SDS011;60019;45.556;12.004;2023-02-23T14:56:47;103.70;;;56.10;;
29302;SDS011;60019;45.556;12.004;2023-02-23T15:03:08;106.43;;;59.13;;
29302;SDS011;60019;45.556;12.004;2023-02-23T15:09:14;100.40;;;58.65;;
29302;SDS011;60019;45.556;12.004;2023-02-23T15:15:17;113.47;;;60.17;;
29302;SDS011;60019;45.556;12.004;2023-02-23T15:21:20;102.72;;;56.50;;
29302;SDS011;60019;45.556;12.004;2023-02-23T15:27:27;98.78;;;57.10;;
29302;SDS011;60019;45.556;12.004;2023-02-23T15:33:29;95.55;;;55.50;;
29302;SDS011;60019;45.556;12.004;2023-02-23T15:39:36;96.85;;;53.05;;
29302;SDS011;60019;45.556;12.004;2023-02-23T15:45:43;106.47;;;58.33;;
29302;SDS011;60019;45.556;12.004;2023-02-23T15:51:49;90.30;;;51.25;;
29302;SDS011;60019;45.556;12.004;2023-02-23T15:57:52;94.70;;;53.28;;
29302;SDS011;60019;45.556;12.004;2023-02-23T16:04:15;87.93;;;51.00;;
29302;SDS011;60019;45.556;12.004;2023-02-23T16:10:19;92.55;;;52.13;;
29302;SDS011;60019;45.556;12.004;2023-02-23T16:16:21;93.20;;;52.28;;
29302;SDS011;60019;45.556;12.004;2023-02-23T16:22:25;93.35;;;52.63;;
29302;SDS011;60019;45.556;12.004;2023-02-23T16:28:29;89.32;;;48.72;;
29302;SDS011;60019;45.556;12.004;2023-02-23T16:34:32;87.88;;;46.00;;
29302;SDS011;60019;45.556;12.004;2023-02-23T16:40:35;85.95;;;48.78;;
29302;SDS011;60019;45.556;12.004;2023-02-23T16:52:57;77.38;;;43.53;;
29302;SDS011;60019;45.556;12.004;2023-02-23T16:59:00;115.30;;;61.17;;
29302;SDS011;60019;45.556;12.004;2023-02-23T17:05:08;240.02;;;121.55;;
29302;SDS011;60019;45.556;12.004;2023-02-23T17:11:13;258.52;;;130.90;;
29302;SDS011;60019;45.556;12.004;2023-02-23T17:17:15;224.68;;;113.88;;
29302;SDS011;60019;45.556;12.004;2023-02-23T17:23:18;191.80;;;95.63;;
29302;SDS011;60019;45.556;12.004;2023-02-23T17:29:19;164.82;;;85.35;;
29302;SDS011;60019;45.556;12.004;2023-02-23T17:35:22;148.63;;;81.63;;
29302;SDS011;60019;45.556;12.004;2023-02-23T17:41:24;142.63;;;72.63;;
29302;SDS011;60019;45.556;12.004;2023-02-23T17:47:27;119.95;;;65.68;;
29302;SDS011;60019;45.556;12.004;2023-02-23T17:53:29;113.55;;;60.38;;
29302;SDS011;60019;45.556;12.004;2023-02-23T17:59:32;122.93;;;65.18;;
29302;SDS011;60019;45.556;12.004;2023-02-23T18:05:34;112.75;;;61.45;;
29302;SDS011;60019;45.556;12.004;2023-02-23T18:11:36;95.68;;;52.10;;
29302;SDS011;60019;45.556;12.004;2023-02-23T18:17:37;84.65;;;49.45;;
29302;SDS011;60019;45.556;12.004;2023-02-23T18:23:39;98.93;;;52.08;;
29302;SDS011;60019;45.556;12.004;2023-02-23T18:29:41;89.43;;;51.85;;
29302;SDS011;60019;45.556;12.004;2023-02-23T18:35:43;87.85;;;51.25;;
29302;SDS011;60019;45.556;12.004;2023-02-23T18:41:45;86.43;;;51.40;;
29302;SDS011;60019;45.556;12.004;2023-02-23T18:47:47;90.07;;;51.65;;
29302;SDS011;60019;45.556;12.004;2023-02-23T18:53:49;84.45;;;49.65;;
29302;SDS011;60019;45.556;12.004;2023-02-23T18:59:51;88.85;;;49.72;;
29302;SDS011;60019;45.556;12.004;2023-02-23T19:05:52;89.35;;;51.90;;
29302;SDS011;60019;45.556;12.004;2023-02-23T19:11:54;88.18;;;51.45;;
29302;SDS011;60019;45.556;12.004;2023-02-23T19:17:56;84.82;;;51.20;;
29302;SDS011;60019;45.556;12.004;2023-02-23T19:23:58;77.68;;;47.40;;
29302;SDS011;60019;45.556;12.004;2023-02-23T19:30:02;79.03;;;44.60;;
29302;SDS011;60019;45.556;12.004;2023-02-23T19:36:08;69.88;;;43.20;;
29302;SDS011;60019;45.556;12.004;2023-02-23T19:42:10;81.38;;;45.55;;
29302;SDS011;60019;45.556;12.004;2023-02-23T19:48:15;74.53;;;44.20;;
29302;SDS011;60019;45.556;12.004;2023-02-23T19:54:17;82.90;;;46.47;;
29302;SDS011;60019;45.556;12.004;2023-02-23T20:00:19;87.55;;;48.33;;
29302;SDS011;60019;45.556;12.004;2023-02-23T20:06:22;73.35;;;44.33;;
29302;SDS011;60019;45.556;12.004;2023-02-23T20:12:26;75.57;;;44.85;;
29302;SDS011;60019;45.556;12.004;2023-02-23T20:18:31;81.35;;;46.58;;
29302;SDS011;60019;45.556;12.004;2023-02-23T20:24:35;89.53;;;49.92;;
29302;SDS011;60019;45.556;12.004;2023-02-23T20:30:37;88.20;;;49.63;;
29302;SDS011;60019;45.556;12.004;2023-02-23T20:36:38;86.47;;;50.15;;
29302;SDS011;60019;45.556;12.004;2023-02-23T20:42:41;83.50;;;47.92;;
29302;SDS011;60019;45.556;12.004;2023-02-23T20:48:44;88.78;;;50.72;;
29302;SDS011;60019;45.556;12.004;2023-02-23T20:54:48;86.80;;;51.10;;
29302;SDS011;60019;45.556;12.004;2023-02-23T21:00:54;89.85;;;51.13;;
29302;SDS011;60019;45.556;12.004;2023-02-23T21:07:03;86.05;;;49.40;;
29302;SDS011;60019;45.556;12.004;2023-02-23T21:13:05;85.60;;;50.03;;
29302;SDS011;60019;45.556;12.004;2023-02-23T21:19:11;80.97;;;48.17;;
29302;SDS011;60019;45.556;12.004;2023-02-23T21:25:14;77.50;;;45.53;;
29302;SDS011;60019;45.556;12.004;2023-02-23T21:31:15;76.35;;;45.75;;
29302;SDS011;60019;45.556;12.004;2023-02-23T21:37:17;99.82;;;56.13;;
29302;SDS011;60019;45.556;12.004;2023-02-23T21:43:19;256.63;;;127.88;;
29302;SDS011;60019;45.556;12.004;2023-02-23T21:49:22;192.85;;;98.40;;
29302;SDS011;60019;45.556;12.004;2023-02-23T21:55:24;162.68;;;86.63;;
29302;SDS011;60019;45.556;12.004;2023-02-23T22:01:27;136.15;;;72.80;;
29302;SDS011;60019;45.556;12.004;2023-02-23T22:07:29;115.63;;;62.88;;
29302;SDS011;60019;45.556;12.004;2023-02-23T22:13:32;106.93;;;61.45;;
29302;SDS011;60019;45.556;12.004;2023-02-23T22:19:33;105.68;;;57.90;;
29302;SDS011;60019;45.556;12.004;2023-02-23T22:25:35;95.45;;;54.50;;
29302;SDS011;60019;45.556;12.004;2023-02-23T22:31:37;97.45;;;55.97;;
29302;SDS011;60019;45.556;12.004;2023-02-23T22:37:39;101.65;;;56.88;;
29302;SDS011;60019;45.556;12.004;2023-02-23T22:43:42;106.00;;;58.30;;
29302;SDS011;60019;45.556;12.004;2023-02-23T22:49:46;98.05;;;56.92;;
29302;SDS011;60019;45.556;12.004;2023-02-23T22:55:49;95.57;;;51.78;;
29302;SDS011;60019;45.556;12.004;2023-02-23T23:01:51;84.70;;;49.08;;
29302;SDS011;60019;45.556;12.004;2023-02-23T23:07:56;86.75;;;53.38;;
29302;SDS011;60019;45.556;12.004;2023-02-23T23:13:58;88.95;;;51.85;;
29302;SDS011;60019;45.556;12.004;2023-02-23T23:20:03;98.68;;;55.55;;
29302;SDS011;60019;45.556;12.004;2023-02-23T23:26:12;98.63;;;56.33;;
29302;SDS011;60019;45.556;12.004;2023-02-23T23:32:15;95.78;;;56.45;;
29302;SDS011;60019;45.556;12.004;2023-02-23T23:38:18;102.80;;;57.72;;
29302;SDS011;60019;45.556;12.004;2023-02-23T23:44:21;102.00;;;58.67;;
29302;SDS011;60019;45.556;12.004;2023-02-23T23:50:23;93.13;;;55.38;;
29302;SDS011;60019;45.556;12.004;2023-02-23T23:56:27;102.82;;;56.53;;
